createdAt,value
2019-04-03T00:02:01.164Z,70.20
2019-04-03T00:04:28.584Z,71.00
2019-04-03T00:06:56.299Z,71.70
2019-04-03T00:09:23.847Z,71.00
2019-04-03T00:11:51.434Z,71.40
2019-04-03T00:14:19.030Z,71.40
2019-04-03T00:16:46.355Z,72.40
2019-04-03T00:19:13.849Z,72.40
2019-04-03T00:24:30.763Z,71.80
2019-04-03T00:26:58.568Z,72.20
2019-04-03T00:29:26.306Z,72.20
2019-04-03T00:31:53.984Z,72.60
2019-04-03T00:34:23.000Z,72.40
2019-04-03T00:36:52.913Z,72.60
2019-04-03T00:39:20.220Z,73.40
2019-04-03T00:41:47.710Z,73.50
2019-04-03T00:44:15.341Z,73.60
2019-04-03T00:46:43.035Z,74.20
2019-04-03T00:49:10.633Z,73.70
2019-04-03T00:51:38.175Z,74.10
2019-04-03T00:54:05.774Z,74.20
2019-04-03T00:56:33.287Z,74.70
2019-04-03T00:59:00.936Z,75.00
2019-04-03T01:01:28.425Z,75.30
2019-04-03T01:03:58.128Z,75.60
2019-04-03T01:06:26.660Z,76.20
2019-04-03T01:08:55.116Z,77.10
2019-04-03T01:11:22.686Z,78.30
2019-04-03T01:13:51.135Z,78.40
2019-04-03T01:16:18.602Z,78.30
2019-04-03T01:18:46.779Z,77.90
2019-04-03T01:21:14.265Z,77.80
2019-04-03T01:23:41.724Z,77.70
2019-04-03T01:26:10.251Z,78.50
2019-04-03T01:28:41.923Z,78.30
2019-04-03T01:31:09.782Z,78.50
2019-04-03T01:33:37.342Z,79.40
2019-04-03T01:36:04.904Z,79.60
2019-04-03T01:38:32.386Z,79.90
2019-04-03T01:40:59.811Z,81.10
2019-04-03T01:43:27.169Z,81.10
2019-04-03T01:45:56.575Z,81.60
2019-04-03T01:48:23.927Z,82.20
2019-04-03T01:50:51.312Z,83.20
2019-04-03T01:53:18.731Z,82.80
2019-04-03T01:55:46.589Z,83.20
2019-04-03T01:58:13.883Z,83.60
2019-04-03T02:00:41.513Z,83.00
2019-04-03T02:03:10.270Z,83.40
2019-04-03T02:05:39.592Z,83.40
2019-04-03T02:08:07.291Z,83.90
2019-04-03T02:10:35.953Z,83.40
2019-04-03T02:13:03.754Z,83.90
2019-04-03T02:15:31.307Z,84.30
2019-04-03T02:17:59.730Z,84.50
2019-04-03T02:20:27.297Z,84.20
2019-04-03T02:22:54.715Z,84.60
2019-04-03T02:25:22.167Z,85.00
2019-04-03T02:27:49.794Z,85.40
2019-04-03T02:30:18.539Z,85.60
2019-04-03T02:32:46.181Z,85.50
2019-04-03T02:35:14.662Z,85.90
2019-04-03T02:37:42.227Z,86.10
2019-04-03T02:40:09.731Z,86.80
2019-04-03T02:42:40.399Z,86.90
2019-04-03T02:45:06.550Z,87.10
2019-04-03T02:47:34.709Z,87.00
2019-04-03T02:50:02.657Z,87.40
2019-04-03T02:52:30.119Z,87.80
2019-04-03T02:54:57.577Z,87.80
2019-04-03T02:57:25.137Z,88.50
2019-04-03T02:59:52.682Z,88.80
2019-04-03T03:02:20.276Z,88.60
2019-04-03T03:04:48.193Z,89.30
2019-04-03T03:07:15.886Z,89.30
2019-04-03T03:09:46.734Z,89.50
2019-04-03T03:12:15.089Z,89.50
2019-04-03T03:14:42.761Z,89.60
2019-04-03T03:17:11.371Z,89.90
2019-04-03T03:19:39.324Z,89.90
2019-04-03T03:22:07.274Z,90.10
2019-04-03T03:24:35.217Z,90.10
2019-04-03T03:27:03.229Z,90.30
2019-04-03T03:29:31.431Z,90.30
2019-04-03T03:32:11.624Z,90.50
2019-04-03T03:34:47.559Z,90.70
2019-04-03T03:37:02.231Z,90.90
2019-04-03T03:39:28.795Z,91.00
2019-04-03T03:41:58.299Z,91.20
2019-04-03T03:44:27.069Z,91.30
2019-04-03T03:46:59.842Z,91.40
2019-04-03T03:49:25.995Z,91.40
2019-04-03T03:51:55.229Z,91.50
2019-04-03T03:54:23.338Z,91.60
2019-04-03T03:56:51.354Z,92.20
2019-04-03T03:59:19.721Z,92.90
2019-04-03T04:01:48.710Z,92.70
2019-04-03T04:04:16.498Z,92.20
2019-04-03T04:06:44.074Z,92.30
2019-04-03T04:09:13.601Z,92.20
2019-04-03T04:11:41.117Z,92.20
2019-04-03T04:14:09.346Z,92.40
2019-04-03T04:16:38.155Z,92.50
2019-04-03T04:19:06.734Z,92.50
2019-04-03T04:21:35.262Z,92.40
2019-04-03T04:24:03.299Z,92.50
2019-04-03T04:26:31.601Z,92.60
2019-04-03T04:29:00.137Z,92.50
2019-04-03T04:31:27.511Z,92.60
2019-04-03T04:33:55.101Z,93.00
2019-04-03T04:36:24.244Z,92.70
2019-04-03T04:38:51.919Z,93.40
2019-04-03T04:41:19.491Z,92.50
2019-04-03T04:43:46.917Z,92.20
2019-04-03T04:46:14.745Z,92.10
2019-04-03T04:48:42.319Z,91.90
2019-04-03T04:51:09.863Z,91.70
2019-04-03T04:53:37.397Z,91.70
2019-04-03T04:56:06.576Z,91.60
2019-04-03T04:58:34.346Z,91.40
2019-04-03T05:01:01.665Z,91.10
2019-04-03T05:03:29.733Z,91.10
2019-04-03T05:05:58.564Z,91.40
2019-04-03T05:08:26.088Z,90.60
2019-04-03T05:10:53.438Z,90.10
2019-04-03T05:13:20.914Z,89.10
2019-04-03T05:15:48.516Z,88.90
2019-04-03T05:18:15.809Z,88.90
2019-04-03T05:20:43.784Z,88.30
2019-04-03T05:23:11.277Z,87.20
2019-04-03T05:25:39.096Z,86.30
2019-04-03T05:28:06.589Z,85.70
2019-04-03T05:30:37.775Z,85.00
2019-04-03T05:33:06.084Z,85.00
2019-04-03T05:35:33.697Z,84.10
2019-04-03T05:38:01.217Z,83.50
2019-04-03T05:40:28.540Z,82.90
2019-04-03T05:42:56.179Z,82.30
2019-04-03T05:45:24.822Z,81.50
2019-04-03T05:47:52.351Z,80.60
2019-04-03T05:50:20.324Z,79.10
2019-04-03T05:52:48.030Z,78.60
2019-04-03T05:55:15.538Z,78.30
2019-04-03T05:57:45.350Z,76.50
2019-04-03T06:00:12.606Z,76.20
2019-04-03T06:02:39.967Z,76.30
2019-04-03T06:05:07.655Z,75.80
2019-04-03T06:07:35.332Z,76.00
2019-04-03T06:10:03.389Z,76.90
2019-04-03T06:12:30.976Z,74.40
2019-04-03T06:14:58.610Z,73.50
2019-04-03T06:17:25.976Z,72.00
2019-04-03T06:19:53.445Z,70.00
2019-04-03T06:22:22.010Z,68.10
2019-04-03T06:24:49.625Z,66.70
2019-04-03T06:27:19.141Z,64.80
2019-04-03T06:29:46.911Z,64.20
2019-04-03T06:32:14.443Z,63.00
2019-04-03T06:34:43.561Z,62.00
2019-04-03T06:37:11.259Z,60.50
2019-04-03T06:39:40.278Z,59.10
2019-04-03T06:42:09.057Z,58.30
2019-04-03T06:44:36.689Z,57.00
2019-04-03T06:47:04.204Z,57.10
2019-04-03T06:49:31.670Z,56.70
2019-04-03T06:51:59.107Z,56.70
2019-04-03T06:54:26.832Z,55.30
2019-04-03T06:56:54.212Z,55.30
2019-04-03T06:59:23.017Z,55.20
2019-04-03T07:01:52.841Z,53.80
2019-04-03T07:04:20.743Z,52.50
2019-04-03T07:06:49.909Z,51.40
2019-04-03T07:09:23.990Z,50.10
2019-04-03T07:11:48.208Z,49.40
2019-04-03T07:14:15.899Z,48.20
2019-04-03T07:16:43.639Z,47.00
2019-04-03T07:19:11.058Z,46.80
2019-04-03T07:21:38.501Z,45.60
2019-04-03T07:24:05.966Z,45.00
2019-04-03T07:26:35.577Z,44.60
2019-04-03T07:29:03.419Z,44.20
2019-04-03T07:31:31.155Z,42.60
2019-04-03T07:34:01.912Z,42.70
2019-04-03T07:36:29.220Z,41.50
2019-04-03T07:38:58.583Z,40.80
2019-04-03T07:41:26.531Z,40.60
2019-04-03T07:43:53.910Z,40.20
2019-04-03T07:46:23.294Z,38.80
2019-04-03T07:48:51.420Z,37.90
2019-04-03T07:51:18.858Z,38.00
2019-04-03T07:53:46.365Z,36.80
2019-04-03T07:56:13.777Z,36.20
2019-04-03T07:58:41.075Z,36.00
2019-04-03T08:01:10.890Z,35.00
2019-04-03T08:03:39.534Z,34.00
2019-04-03T08:06:07.309Z,33.40
2019-04-03T08:08:36.518Z,33.10
2019-04-03T08:11:04.108Z,33.00
2019-04-03T08:13:31.549Z,32.90
2019-04-03T08:15:59.316Z,32.30
2019-04-03T08:18:26.722Z,31.50
2019-04-03T08:20:55.133Z,31.00
2019-04-03T08:23:23.810Z,30.50
2019-04-03T08:25:54.009Z,30.20
2019-04-03T08:28:21.164Z,29.80
2019-04-03T08:30:48.648Z,29.90
2019-04-03T08:33:36.281Z,29.10
2019-04-03T08:36:06.622Z,28.30
2019-04-03T08:38:36.346Z,27.80
2019-04-03T08:41:04.440Z,27.90
2019-04-03T08:43:33.077Z,27.10
2019-04-03T08:46:00.730Z,26.60
2019-04-03T08:48:28.436Z,26.40
2019-04-03T08:50:58.008Z,26.40
2019-04-03T08:53:25.438Z,26.30
2019-04-03T08:55:53.471Z,25.60
2019-04-03T08:58:25.394Z,25.60
2019-04-03T09:00:52.140Z,25.40
2019-04-03T09:03:19.605Z,25.00
2019-04-03T09:05:50.132Z,25.10
2019-04-03T09:08:16.725Z,24.90
2019-04-03T09:10:44.424Z,24.60
2019-04-03T09:13:17.749Z,24.00
2019-04-03T09:15:41.815Z,24.00
2019-04-03T09:18:09.311Z,24.20
2019-04-03T09:20:36.980Z,24.50
2019-04-03T09:23:04.478Z,23.80
2019-04-03T09:25:32.604Z,23.30
2019-04-03T09:28:00.775Z,23.10
2019-04-03T09:30:28.552Z,22.90
2019-04-03T09:32:59.554Z,22.90
2019-04-03T09:35:26.673Z,23.00
2019-04-03T09:37:54.327Z,23.40
2019-04-03T09:40:22.498Z,24.00
2019-04-03T09:42:51.591Z,23.90
2019-04-03T09:45:19.781Z,23.80
2019-04-03T09:47:47.367Z,24.30
2019-04-03T09:50:16.317Z,24.70
2019-04-03T09:52:48.969Z,25.20
2019-04-03T09:55:13.693Z,25.70
2019-04-03T09:57:41.633Z,26.30
2019-04-03T10:00:11.739Z,26.90
2019-04-03T10:02:39.315Z,27.20
2019-04-03T10:05:07.008Z,27.40
2019-04-03T10:07:36.384Z,27.30
2019-04-03T10:10:05.575Z,26.80
2019-04-03T10:12:33.358Z,26.80
2019-04-03T10:15:00.845Z,26.60
2019-04-03T10:17:28.378Z,26.00
2019-04-03T10:19:55.728Z,24.40
2019-04-03T10:22:24.124Z,23.90
2019-04-03T10:24:52.281Z,23.40
2019-04-03T10:27:19.846Z,23.30
2019-04-03T10:29:49.150Z,22.80
2019-04-03T10:32:17.484Z,22.80
2019-04-03T10:34:44.947Z,22.70
2019-04-03T10:37:14.439Z,22.30
2019-04-03T10:39:44.285Z,22.80
2019-04-03T10:42:11.320Z,22.20
2019-04-03T10:44:38.996Z,22.10
2019-04-03T10:47:06.793Z,21.90
2019-04-03T10:49:34.924Z,21.60
2019-04-03T10:52:02.498Z,21.60
2019-04-03T10:54:29.848Z,21.70
2019-04-03T10:56:57.509Z,21.60
2019-04-03T10:59:25.395Z,21.30
2019-04-03T11:01:52.707Z,20.70
2019-04-03T11:04:20.093Z,21.10
2019-04-03T11:06:47.540Z,21.20
2019-04-03T11:09:14.915Z,20.80
2019-04-03T11:11:43.574Z,20.70
2019-04-03T11:14:11.895Z,21.00
2019-04-03T11:16:39.565Z,21.40
2019-04-03T11:19:07.505Z,21.20
2019-04-03T11:23:06.359Z,20.70
2019-04-03T11:25:30.063Z,20.40
2019-04-03T11:27:57.670Z,20.50
2019-04-03T11:30:25.691Z,20.20
2019-04-03T11:32:53.269Z,20.20
2019-04-03T11:35:22.287Z,20.50
2019-04-03T11:37:53.094Z,21.20
2019-04-03T11:40:24.533Z,22.00
2019-04-03T11:42:51.157Z,22.00
2019-04-03T11:45:20.709Z,21.90
2019-04-03T11:47:48.161Z,22.20
2019-04-03T11:50:18.154Z,22.70
2019-04-03T11:52:45.935Z,23.00
2019-04-03T11:55:15.038Z,23.80
2019-04-03T11:57:43.417Z,24.40
2019-04-03T12:00:16.693Z,24.90
2019-04-03T12:06:02.523Z,26.60
2019-04-03T12:08:31.961Z,26.70
2019-04-03T12:10:59.552Z,27.10
2019-04-03T12:13:28.521Z,27.40
2019-04-03T12:15:58.135Z,28.50
2019-04-03T12:18:25.505Z,28.40
2019-04-03T12:20:53.296Z,28.10
2019-04-03T12:23:21.799Z,28.40
2019-04-03T12:25:49.226Z,28.30
2019-04-03T12:28:18.456Z,28.40
2019-04-03T12:30:46.053Z,28.60
2019-04-03T12:33:13.750Z,28.90
2019-04-03T12:35:42.477Z,28.50
2019-04-03T12:38:10.489Z,28.60
2019-04-03T12:40:37.898Z,28.90
2019-04-03T12:43:05.809Z,28.20
2019-04-03T12:45:34.965Z,28.90
2019-04-03T12:48:02.723Z,29.10
2019-04-03T12:50:30.391Z,29.00
2019-04-03T12:52:58.228Z,28.40
2019-04-03T12:55:26.805Z,28.00
2019-04-03T12:57:54.706Z,27.60
2019-04-03T13:00:22.641Z,27.30
2019-04-03T13:02:52.406Z,27.40
2019-04-03T13:05:19.653Z,27.40
2019-04-03T13:07:47.713Z,27.90
2019-04-03T13:10:15.969Z,28.80
2019-04-03T13:12:43.590Z,29.40
2019-04-03T13:15:11.799Z,28.70
2019-04-03T13:17:39.408Z,28.60
2019-04-03T13:20:08.029Z,29.70
2019-04-03T13:23:56.215Z,29.80
2019-04-03T13:26:25.347Z,29.40
2019-04-03T13:28:54.479Z,29.90
2019-04-03T13:31:24.069Z,30.00
2019-04-03T13:33:52.304Z,30.00
2019-04-03T13:36:23.029Z,30.30
2019-04-03T13:38:51.278Z,30.00
2019-04-03T13:41:19.604Z,30.00
2019-04-03T13:43:48.684Z,30.30
2019-04-03T13:46:16.505Z,30.40
2019-04-03T13:48:44.965Z,30.70
2019-04-03T13:51:13.237Z,30.60
2019-04-03T13:53:40.930Z,30.40
2019-04-03T13:56:11.173Z,30.60
2019-04-03T13:58:37.687Z,30.80
2019-04-03T14:01:07.990Z,31.00
2019-04-03T14:03:35.208Z,31.00
2019-04-03T14:06:04.480Z,31.50
2019-04-03T14:08:33.221Z,32.00
2019-04-03T14:11:00.846Z,32.00
2019-04-03T14:13:29.779Z,32.40
2019-04-03T14:15:57.170Z,32.20
2019-04-03T14:18:25.006Z,32.20
2019-04-03T14:20:54.046Z,32.20
2019-04-03T14:23:21.880Z,32.50
2019-04-03T14:25:49.410Z,32.70
2019-04-03T14:28:17.337Z,32.80
2019-04-03T14:30:45.836Z,33.70
2019-04-03T14:33:14.585Z,34.00
2019-04-03T14:35:50.343Z,34.50
2019-04-03T14:38:12.430Z,33.70
2019-04-03T14:40:43.075Z,34.40
2019-04-03T14:43:10.314Z,34.50
2019-04-03T14:45:39.747Z,34.50
2019-04-03T14:48:08.192Z,34.30
2019-04-03T14:50:38.128Z,34.50
2019-04-03T14:53:05.116Z,35.50
2019-04-03T14:55:40.665Z,34.90
2019-04-03T14:58:02.280Z,35.40
2019-04-03T15:00:31.907Z,35.60
2019-04-03T15:03:00.601Z,35.60
2019-04-03T15:05:28.142Z,35.60
2019-04-03T15:07:56.077Z,36.00
2019-04-03T15:10:25.253Z,35.80
2019-04-03T15:12:54.718Z,35.90
2019-04-03T15:15:27.572Z,35.80
2019-04-03T15:17:55.301Z,35.90
2019-04-03T15:20:24.169Z,35.80
2019-04-03T15:22:52.020Z,36.50
2019-04-03T15:25:20.954Z,36.60
2019-04-03T15:27:49.346Z,36.60
2019-04-03T15:30:18.773Z,37.30
2019-04-03T15:32:46.370Z,37.90
2019-04-03T15:35:13.989Z,37.40
2019-04-03T15:37:42.547Z,37.50
2019-04-03T15:40:10.745Z,37.70
2019-04-03T15:42:40.319Z,37.90
2019-04-03T15:45:08.903Z,38.40
2019-04-03T15:47:41.733Z,38.70
2019-04-03T15:50:07.666Z,38.40
2019-04-03T15:52:35.179Z,38.40
2019-04-03T15:55:04.911Z,38.60
2019-04-03T15:57:33.108Z,39.30
2019-04-03T16:00:02.844Z,39.10
2019-04-03T16:02:32.560Z,39.70
2019-04-03T16:05:00.710Z,39.60
2019-04-03T16:07:32.830Z,39.30
2019-04-03T16:10:01.292Z,39.70
2019-04-03T16:12:29.231Z,39.90
2019-04-03T16:14:57.480Z,40.40
2019-04-03T16:17:26.957Z,40.60
2019-04-03T16:19:54.508Z,40.50
2019-04-03T16:22:22.588Z,41.60
2019-04-03T16:24:53.899Z,41.50
2019-04-03T16:27:23.514Z,41.40
2019-04-03T16:30:27.682Z,42.00
2019-04-03T16:32:59.727Z,42.00
2019-04-03T16:35:26.852Z,42.40
2019-04-03T16:37:57.994Z,43.10
2019-04-03T16:40:27.431Z,43.70
2019-04-03T16:42:55.288Z,44.00
2019-04-03T16:45:23.416Z,44.20
2019-04-03T16:48:49.936Z,44.50
2019-04-03T16:51:20.284Z,45.40
2019-04-03T16:53:50.581Z,45.40
2019-04-03T16:56:19.052Z,46.40
2019-04-03T16:58:46.614Z,46.50
2019-04-03T17:01:14.658Z,47.20
2019-04-03T17:03:43.863Z,47.70
2019-04-03T17:06:13.208Z,47.60
2019-04-03T17:08:41.384Z,48.30
2019-04-03T17:11:09.902Z,48.90
2019-04-03T17:13:39.884Z,48.70
2019-04-03T17:16:07.877Z,48.90
2019-04-03T17:18:35.223Z,49.40
2019-04-03T17:21:02.931Z,50.00
2019-04-03T17:23:30.826Z,49.90
2019-04-03T17:25:58.573Z,49.90
2019-04-03T17:28:27.315Z,50.20
2019-04-03T17:30:56.042Z,50.20
2019-04-03T17:33:23.979Z,50.90
2019-04-03T17:35:52.173Z,50.20
2019-04-03T17:38:19.661Z,50.20
2019-04-03T17:40:47.313Z,50.40
2019-04-03T17:43:16.882Z,50.50
2019-04-03T17:45:46.172Z,50.70
2019-04-03T17:48:13.931Z,51.00
2019-04-03T17:50:41.616Z,51.30
2019-04-03T17:53:09.083Z,51.40
2019-04-03T17:55:36.784Z,51.70
2019-04-03T17:58:04.474Z,52.10
2019-04-03T18:00:33.385Z,52.50
2019-04-03T18:03:08.586Z,53.10
2019-04-03T18:05:42.012Z,53.30
2019-04-03T18:08:09.950Z,53.50
2019-04-03T18:10:37.523Z,54.00
2019-04-03T18:13:05.881Z,54.30
2019-04-03T18:15:33.465Z,54.70
2019-04-03T18:18:02.848Z,55.20
2019-04-03T18:20:31.550Z,56.10
2019-04-03T18:22:59.186Z,55.90
2019-04-03T18:25:28.805Z,56.30
2019-04-03T18:27:56.719Z,56.70
2019-04-03T18:30:26.395Z,56.70
2019-04-03T18:32:53.861Z,57.00
2019-04-03T18:35:21.433Z,57.70
2019-04-03T18:37:48.903Z,58.40
2019-04-03T18:40:17.464Z,58.30
2019-04-03T18:42:45.047Z,58.20
2019-04-03T18:45:24.696Z,58.30
2019-04-03T18:47:45.790Z,58.40
2019-04-03T18:50:12.244Z,59.20
2019-04-03T18:52:40.667Z,59.30
2019-04-03T18:55:10.056Z,59.90
2019-04-03T18:57:38.459Z,59.90
2019-04-03T19:00:38.114Z,60.10
2019-04-03T19:03:09.895Z,60.50
2019-04-03T19:05:46.200Z,61.30
2019-04-03T19:08:18.211Z,62.80
2019-04-03T19:10:46.260Z,62.70
2019-04-03T19:13:14.745Z,65.10
2019-04-03T19:15:42.467Z,65.50
2019-04-03T19:18:19.396Z,65.10
2019-04-03T19:20:40.940Z,65.60
2019-04-03T19:23:10.992Z,67.10
2019-04-03T19:25:39.234Z,67.60
2019-04-03T19:28:08.902Z,67.80
2019-04-03T19:30:37.995Z,67.60
2019-04-03T19:33:05.964Z,68.10
2019-04-03T19:35:33.427Z,67.30
2019-04-03T19:38:01.071Z,67.50
2019-04-03T19:40:28.503Z,68.50
2019-04-03T19:42:56.102Z,69.20
2019-04-03T19:45:23.584Z,68.40
2019-04-03T19:47:51.074Z,70.90
2019-04-03T19:50:18.511Z,71.20
2019-04-03T19:52:46.973Z,71.10
2019-04-03T19:55:14.590Z,71.00
2019-04-03T19:57:42.078Z,71.20
2019-04-03T20:00:10.367Z,71.50
2019-04-03T20:02:38.614Z,70.80
2019-04-03T20:05:08.131Z,71.20
2019-04-03T20:07:35.997Z,71.00
2019-04-03T20:10:05.714Z,70.90
2019-04-03T20:12:33.378Z,71.20
2019-04-03T20:15:02.395Z,72.10
2019-04-03T20:17:30.253Z,71.80
2019-04-03T20:19:58.400Z,73.70
2019-04-03T20:22:25.956Z,73.70
2019-04-03T20:24:59.887Z,73.90
2019-04-03T20:27:23.151Z,73.50
2019-04-03T20:29:50.878Z,73.70
2019-04-03T20:32:18.400Z,73.10
2019-04-03T20:34:46.916Z,73.00
2019-04-03T20:37:15.344Z,72.70
2019-04-03T20:39:43.671Z,72.70
2019-04-03T20:42:11.587Z,74.00
2019-04-03T20:44:40.166Z,73.10
2019-04-03T20:47:07.811Z,72.30
2019-04-03T20:49:35.770Z,72.50
2019-04-03T20:52:04.443Z,72.70
2019-04-03T20:54:32.139Z,72.40
2019-04-03T20:57:02.294Z,72.90
2019-04-03T20:59:30.228Z,73.60
2019-04-03T21:01:57.708Z,74.00
2019-04-03T21:04:25.204Z,74.10
2019-04-03T21:06:53.142Z,74.20
2019-04-03T21:09:20.664Z,74.60
2019-04-03T21:11:48.276Z,74.90
2019-04-03T21:14:18.375Z,75.20
2019-04-03T21:16:48.121Z,75.70
2019-04-03T21:19:15.789Z,76.80
2019-04-03T21:21:43.389Z,77.30
2019-04-03T21:24:14.057Z,77.10
2019-04-03T21:26:41.637Z,77.00
2019-04-03T21:29:09.139Z,77.30
2019-04-03T21:31:36.542Z,77.60
2019-04-03T21:34:04.101Z,78.30
2019-04-03T21:36:33.205Z,79.30
2019-04-03T21:39:00.770Z,79.30
2019-04-03T21:41:28.239Z,79.50
2019-04-03T21:43:55.774Z,80.00
2019-04-03T21:46:23.371Z,80.10
2019-04-03T21:48:50.827Z,80.70
2019-04-03T21:51:18.949Z,80.70
2019-04-03T21:53:47.787Z,80.50
2019-04-03T21:56:15.307Z,80.70
2019-04-03T21:58:45.506Z,81.00
2019-04-03T22:01:18.943Z,81.70
2019-04-03T22:03:47.030Z,81.70
2019-04-03T22:06:14.771Z,81.90
2019-04-03T22:08:42.324Z,82.40
2019-04-03T22:11:09.974Z,82.70
2019-04-03T22:13:38.427Z,82.60
2019-04-03T22:16:06.489Z,83.20
2019-04-03T22:18:33.986Z,83.40
2019-04-03T22:21:02.526Z,84.10
2019-04-03T22:23:30.184Z,85.10
2019-04-03T22:25:57.555Z,84.60
2019-04-03T22:28:25.597Z,85.00
2019-04-03T22:30:53.124Z,85.20
2019-04-03T22:33:20.464Z,85.20
2019-04-03T22:35:47.998Z,85.20
2019-04-03T22:38:15.474Z,85.70
2019-04-03T22:40:42.839Z,85.90
2019-04-03T22:43:10.265Z,85.70
2019-04-03T22:45:37.766Z,85.70
2019-04-03T22:48:05.311Z,86.10
2019-04-03T22:50:33.493Z,86.50
2019-04-03T22:53:01.967Z,86.80
2019-04-03T22:55:29.492Z,87.20
2019-04-03T22:57:56.956Z,87.90
2019-04-03T23:00:25.849Z,88.70
2019-04-03T23:02:53.771Z,88.50
2019-04-03T23:05:21.264Z,88.40
2019-04-03T23:07:51.775Z,88.60
2019-04-03T23:10:18.195Z,88.60
2019-04-03T23:12:45.552Z,88.60
2019-04-03T23:15:13.248Z,88.80
2019-04-03T23:17:40.808Z,89.00
2019-04-03T23:20:08.554Z,90.00
2019-04-03T23:22:36.046Z,90.00
2019-04-03T23:25:04.162Z,90.30
2019-04-03T23:27:32.979Z,90.00
2019-04-03T23:30:00.951Z,90.00
2019-04-03T23:32:29.392Z,90.10
2019-04-03T23:35:11.770Z,90.20
2019-04-03T23:37:39.199Z,90.10
2019-04-03T23:40:07.263Z,90.30
2019-04-03T23:42:35.883Z,90.20
2019-04-03T23:45:04.568Z,90.10
2019-04-03T23:47:32.039Z,90.30
2019-04-03T23:49:59.514Z,90.00
2019-04-03T23:52:29.635Z,89.90
2019-04-03T23:54:56.230Z,89.70
2019-04-03T23:57:23.794Z,89.70
2019-04-03T23:59:51.186Z,90.00
